createdAt,value
2022-08-11T00:01:56.881Z,-64.85055
2022-08-11T00:06:57.881Z,-64.74915
2022-08-11T00:11:59.063Z,-64.72849
2022-08-11T00:17:00.094Z,-64.82566
2022-08-11T00:22:04.425Z,-64.73566
2022-08-11T00:27:07.017Z,-64.86794
2022-08-11T00:32:07.963Z,-64.85461
2022-08-11T00:37:08.965Z,-64.90383
2022-08-11T00:42:09.896Z,-65.20466
2022-08-11T00:47:10.804Z,-65.04973
2022-08-11T00:52:11.727Z,-65.03783
2022-08-11T00:57:36.100Z,-65.34545
2022-08-11T01:02:39.212Z,-65.11262
2022-08-11T01:08:02.916Z,-65.07301
2022-08-11T01:13:04.445Z,-65.16805
2022-08-11T01:18:09.528Z,-65.27997
2022-08-11T01:23:12.567Z,-65.25187
2022-08-11T01:28:16.822Z,-65.581
2022-08-11T01:33:17.770Z,-65.67881
2022-08-11T01:38:18.783Z,-65.83242
2022-08-11T01:43:19.672Z,-65.92092
2022-08-11T01:48:20.587Z,-65.80238
2022-08-11T01:53:21.534Z,-65.83236
2022-08-11T01:58:22.418Z,-65.52914
2022-08-11T02:03:41.770Z,-65.28539
2022-08-11T02:08:44.291Z,-65.33007
2022-08-11T02:13:50.579Z,-64.69892
2022-08-11T02:18:51.813Z,-64.84578
2022-08-11T02:24:04.161Z,-64.91987
2022-08-11T02:29:08.406Z,-64.77754
2022-08-11T02:34:09.356Z,-64.30959
2022-08-11T02:39:10.358Z,-64.55517
2022-08-11T02:44:11.408Z,-64.33591
2022-08-11T02:49:12.338Z,-64.22043
2022-08-11T02:54:13.246Z,-63.83161
2022-08-11T02:59:14.164Z,-63.99374
2022-08-11T03:04:15.116Z,-63.94833
2022-08-11T03:09:16.006Z,-64.16439
2022-08-11T03:14:16.926Z,-64.17253
2022-08-11T03:19:17.844Z,-64.19058
2022-08-11T03:24:18.901Z,-64.37775
2022-08-11T03:29:25.034Z,-64.79466
2022-08-11T03:34:26.561Z,-64.78116
2022-08-11T03:39:27.529Z,-64.95294
2022-08-11T03:44:28.554Z,-64.95082
2022-08-11T03:49:29.776Z,-65.06573
2022-08-11T03:54:30.789Z,-65.53564
2022-08-11T03:59:31.796Z,-65.38618
2022-08-11T04:04:32.721Z,-65.38081
2022-08-11T04:09:33.625Z,-65.04801
2022-08-11T04:14:34.605Z,-64.91794
2022-08-11T04:19:35.520Z,-65.22701
2022-08-11T04:24:39.504Z,-65.40215
2022-08-11T04:30:03.286Z,-65.55031
2022-08-11T04:35:05.909Z,-65.91446
2022-08-11T04:40:06.810Z,-65.41057
2022-08-11T04:45:07.742Z,-66.21426
2022-08-11T04:50:08.667Z,-65.70529
2022-08-11T04:55:09.599Z,-65.65763
2022-08-11T05:00:10.504Z,-65.82623
2022-08-11T05:05:11.530Z,-66.16134
2022-08-11T05:10:12.443Z,-66.05164
2022-08-11T05:15:13.379Z,-65.6426
2022-08-11T05:20:14.271Z,-65.98711
2022-08-11T05:25:15.201Z,-66.4748
2022-08-11T05:31:46.849Z,-66.62236
2022-08-11T05:36:47.770Z,-66.47994
2022-08-11T05:41:48.671Z,-66.53315
2022-08-11T05:46:49.619Z,-66.88901
2022-08-11T05:51:55.273Z,-67.37237
2022-08-11T05:56:56.673Z,-67.45563
2022-08-11T06:01:57.625Z,-67.65096
2022-08-11T06:06:58.608Z,-68.02226
2022-08-11T06:11:59.535Z,-67.91894
2022-08-11T06:17:00.537Z,-68.34211
2022-08-11T06:22:01.455Z,-68.91358
2022-08-11T06:27:12.375Z,-68.19021
2022-08-11T06:32:14.282Z,-68.54617
2022-08-11T06:37:15.182Z,-68.83976
2022-08-11T06:42:16.118Z,-69.03243
2022-08-11T06:47:17.013Z,-68.37749
2022-08-11T06:52:34.731Z,-68.24593
2022-08-11T06:57:36.917Z,-68.02576
2022-08-11T07:02:37.992Z,-67.77934
2022-08-11T07:07:39.100Z,-67.32888
2022-08-11T07:12:40.088Z,-67.11969
2022-08-11T07:17:41.087Z,-66.24074
2022-08-11T07:22:42.011Z,-66.44099
2022-08-11T07:27:42.901Z,-66.3332
2022-08-11T07:32:43.877Z,-65.77457
2022-08-11T07:37:44.844Z,-66.02991
2022-08-11T07:42:45.756Z,-65.26299
2022-08-11T07:47:46.692Z,-66.08494
2022-08-11T07:52:47.614Z,-65.91472
2022-08-11T07:58:15.954Z,-65.18717
2022-08-11T08:03:20.987Z,-65.06391
2022-08-11T08:08:21.995Z,-65.12974
2022-08-11T08:13:24.129Z,-64.96364
2022-08-11T08:18:27.646Z,-64.67568
2022-08-11T08:23:28.958Z,-64.42443
2022-08-11T08:28:32.463Z,-64.50943
2022-08-11T08:33:33.870Z,-64.27107
2022-08-11T08:38:34.827Z,-64.24251
2022-08-11T08:43:48.903Z,-63.64032
2022-08-11T08:48:53.125Z,-63.369
2022-08-11T08:53:56.685Z,-63.42062
2022-08-11T08:58:59.566Z,-63.50301
2022-08-11T09:04:04.957Z,-63.3225
2022-08-11T09:09:10.114Z,-62.35495
2022-08-11T09:14:14.787Z,-62.74963
2022-08-11T09:19:16.181Z,-62.56084
2022-08-11T09:24:25.874Z,-62.74521
2022-08-11T09:29:27.453Z,-62.06862
2022-08-11T09:34:28.371Z,-62.04265
2022-08-11T09:39:31.201Z,-61.37868
2022-08-11T09:44:32.586Z,-61.5161
2022-08-11T09:49:35.353Z,-60.63573
2022-08-11T09:54:36.260Z,-60.68289
2022-08-11T09:59:37.182Z,-60.27834
2022-08-11T10:04:38.289Z,-59.62615
2022-08-11T10:09:39.381Z,-59.18306
2022-08-11T10:14:44.385Z,-58.84246
2022-08-11T10:19:45.647Z,-58.26556
2022-08-11T10:25:05.674Z,-57.88711
2022-08-11T10:30:06.565Z,-57.52423
2022-08-11T10:35:08.221Z,-57.49443
2022-08-11T10:40:09.159Z,-56.97812
2022-08-11T10:45:10.051Z,-56.28765
2022-08-11T10:50:10.959Z,-56.16143
2022-08-11T10:55:12.112Z,-55.86301
2022-08-11T11:00:13.140Z,-55.13326
2022-08-11T11:05:14.111Z,-54.60903
2022-08-11T11:10:15.128Z,-54.56268
2022-08-11T11:15:17.722Z,-54.62573
2022-08-11T11:20:36.382Z,-54.47697
2022-08-11T11:25:40.139Z,-53.84503
2022-08-11T11:30:41.021Z,-53.45411
2022-08-11T11:35:41.947Z,-52.67992
2022-08-11T11:40:42.921Z,-52.41162
2022-08-11T11:45:43.927Z,-52.12535
2022-08-11T11:50:45.023Z,-51.88489
2022-08-11T11:55:45.965Z,-51.58132
2022-08-11T12:00:46.874Z,-50.73565
2022-08-11T12:05:47.774Z,-50.96715
2022-08-11T12:10:48.744Z,-50.38623
2022-08-11T12:16:31.617Z,-49.65417
2022-08-11T12:21:37.061Z,-49.05961
2022-08-11T12:26:37.979Z,-48.76297
2022-08-11T12:31:39.278Z,-48.73802
2022-08-11T12:36:40.220Z,-47.88245
2022-08-11T12:41:41.248Z,-48.22858
2022-08-11T12:46:42.551Z,-47.47049
2022-08-11T12:52:11.127Z,-46.85952
2022-08-11T12:57:15.090Z,-46.08844
2022-08-11T13:02:25.045Z,-45.35821
2022-08-11T13:07:50.481Z,-43.95807
2022-08-11T13:12:52.368Z,-43.89709
2022-08-11T13:17:53.390Z,-44.08917
2022-08-11T13:22:54.404Z,-43.67163
2022-08-11T13:27:55.429Z,-43.24092
2022-08-11T13:32:59.639Z,-42.67322
2022-08-11T13:38:18.533Z,-42.25034
2022-08-11T13:43:20.972Z,-42.1691
2022-08-11T13:48:21.979Z,-41.5953
2022-08-11T13:53:22.875Z,-41.22632
2022-08-11T13:58:40.587Z,-41.22066
2022-08-11T14:04:30.515Z,-40.77546
2022-08-11T14:09:32.990Z,-40.26557
2022-08-11T14:14:33.937Z,-39.9029
2022-08-11T14:19:34.926Z,-39.41277
2022-08-11T14:24:35.924Z,-39.25135
2022-08-11T14:29:48.567Z,-39.06553
2022-08-11T14:34:50.090Z,-38.33852
2022-08-11T14:39:51.096Z,-38.51623
2022-08-11T14:44:52.115Z,-38.49942
2022-08-11T14:50:08.227Z,-38.87936
2022-08-11T14:55:13.405Z,-38.06429
2022-08-11T15:00:14.285Z,-38.3338
2022-08-11T15:05:15.241Z,-37.63773
2022-08-11T15:10:16.174Z,-37.35289
2022-08-11T15:15:17.108Z,-37.23705
2022-08-11T15:20:18.021Z,-36.95201
2022-08-11T15:25:18.978Z,-36.11323
2022-08-11T15:30:33.572Z,-35.73385
2022-08-11T15:35:39.516Z,-35.48569
2022-08-11T15:40:40.754Z,-34.84533
2022-08-11T15:45:44.522Z,-35.40823
2022-08-11T15:50:45.469Z,-35.55483
2022-08-11T15:55:46.387Z,-34.90707
2022-08-11T16:00:47.320Z,-34.42922
2022-08-11T16:05:52.860Z,-34.27015
2022-08-11T16:10:54.292Z,-34.31405
2022-08-11T16:15:56.361Z,-34.14906
2022-08-11T16:20:57.262Z,-33.54161
2022-08-11T16:27:11.227Z,-33.18203
2022-08-11T16:32:14.429Z,-33.54597
2022-08-11T16:37:15.500Z,-33.68623
2022-08-11T16:43:00.187Z,-33.65669
2022-08-11T16:48:33.435Z,-33.35452
2022-08-11T16:54:04.666Z,-33.68595
2022-08-11T16:59:07.034Z,-33.70161
2022-08-11T17:04:08.043Z,-33.9007
2022-08-11T17:09:08.989Z,-33.7068
2022-08-11T17:14:09.883Z,-33.48465
2022-08-11T17:19:10.818Z,-33.56758
2022-08-11T17:24:11.788Z,-33.88143
2022-08-11T17:29:12.715Z,-33.99919
2022-08-11T17:34:13.629Z,-33.78809
2022-08-11T17:39:14.671Z,-34.1261
2022-08-11T17:44:15.724Z,-34.20909
2022-08-11T17:49:16.712Z,-34.17076
2022-08-11T17:54:24.673Z,-34.23765
2022-08-11T17:59:26.397Z,-34.37376
2022-08-11T18:04:33.396Z,-34.3818
2022-08-11T18:09:34.288Z,-34.85973
2022-08-11T18:14:35.277Z,-35.54772
2022-08-11T18:19:36.276Z,-35.85886
2022-08-11T18:24:37.253Z,-36.50052
2022-08-11T18:29:41.959Z,-36.25808
2022-08-11T18:34:45.762Z,-36.78068
2022-08-11T18:39:56.271Z,-37.15969
2022-08-11T18:44:57.770Z,-37.68064
2022-08-11T18:50:02.187Z,-37.77251
2022-08-11T18:55:05.144Z,-37.87285
2022-08-11T19:00:06.056Z,-37.74285
2022-08-11T19:05:07.005Z,-38.22049
2022-08-11T19:10:07.918Z,-38.29882
2022-08-11T19:15:08.833Z,-38.43537
2022-08-11T19:20:09.837Z,-38.84768
2022-08-11T19:25:10.828Z,-38.64426
2022-08-11T19:30:13.975Z,-38.94916
2022-08-11T19:35:18.149Z,-38.39918
2022-08-11T19:40:19.116Z,-38.05517
2022-08-11T19:45:19.984Z,-38.09746
2022-08-11T19:50:24.260Z,-38.2578
2022-08-11T19:55:25.376Z,-38.54125
2022-08-11T20:00:29.914Z,-38.1666
2022-08-11T20:05:31.438Z,-38.40205
2022-08-11T20:10:32.369Z,-38.90811
2022-08-11T20:15:33.291Z,-39.35574
2022-08-11T20:20:34.872Z,-39.41685
2022-08-11T20:25:36.102Z,-39.66968
2022-08-11T20:30:37.039Z,-40.82793
2022-08-11T20:35:37.943Z,-40.66967
2022-08-11T20:40:39.223Z,-40.86689
2022-08-11T20:45:55.346Z,-41.56515
2022-08-11T20:50:58.417Z,-41.87512
2022-08-11T20:55:59.361Z,-42.27382
2022-08-11T21:01:07.561Z,-42.22992
2022-08-11T21:06:31.170Z,-42.65091
2022-08-11T21:11:32.787Z,-43.40354
2022-08-11T21:16:34.578Z,-43.71337
2022-08-11T21:21:45.599Z,-43.98452
2022-08-11T21:26:47.411Z,-44.05996
2022-08-11T21:31:48.309Z,-44.16439
2022-08-11T21:36:49.290Z,-43.61418
2022-08-11T21:41:50.235Z,-44.06383
2022-08-11T21:46:51.130Z,-44.17784
2022-08-11T21:51:52.068Z,-44.28971
2022-08-11T21:56:53.069Z,-44.48881
2022-08-11T22:01:54.093Z,-44.31033
2022-08-11T22:06:55.106Z,-44.32474
2022-08-11T22:12:29.888Z,-44.36939
2022-08-11T22:17:43.653Z,-44.01352
2022-08-11T22:22:52.502Z,-43.88229
2022-08-11T22:27:54.329Z,-43.66706
2022-08-11T22:32:55.235Z,-43.7749
2022-08-11T22:37:56.149Z,-43.98907
2022-08-11T22:42:57.064Z,-44.1382
2022-08-11T22:47:57.976Z,-44.20447
2022-08-11T22:52:58.907Z,-44.14762
2022-08-11T22:58:01.210Z,-44.93073
2022-08-11T23:03:02.515Z,-44.74373
2022-08-11T23:08:03.410Z,-45.3142
2022-08-11T23:13:04.374Z,-45.1011
2022-08-11T23:18:05.331Z,-45.59414
2022-08-11T23:23:07.123Z,-45.63492
2022-08-11T23:28:08.692Z,-45.82803
2022-08-11T23:33:10.058Z,-45.40908
2022-08-11T23:38:11.489Z,-45.77998
2022-08-11T23:43:12.385Z,-45.77461
2022-08-11T23:48:13.385Z,-45.41191
2022-08-11T23:53:14.428Z,-45.48806
2022-08-11T23:58:15.439Z,-45.62653
